sensor_id;sensor_type;location;lat;lon;timestamp;temperature;humidity
48019;DHT22;33786;48.690;9.562;2023-04-06T00:02:17;-1.40;99.90
48019;DHT22;33786;48.690;9.562;2023-04-06T00:04:44;-1.30;99.90
48019;DHT22;33786;48.690;9.562;2023-04-06T00:07:10;-1.40;99.90
48019;DHT22;33786;48.690;9.562;2023-04-06T00:09:37;-1.40;99.90
48019;DHT22;33786;48.690;9.562;2023-04-06T00:12:04;-1.40;99.90
48019;DHT22;33786;48.690;9.562;2023-04-06T00:14:31;-1.40;99.90
48019;DHT22;33786;48.690;9.562;2023-04-06T00:16:57;-1.40;99.90
48019;DHT22;33786;48.690;9.562;2023-04-06T00:19:24;-1.40;99.90
48019;DHT22;33786;48.690;9.562;2023-04-06T00:21:51;-1.40;99.90
48019;DHT22;33786;48.690;9.562;2023-04-06T00:24:18;-1.40;99.90
48019;DHT22;33786;48.690;9.562;2023-04-06T00:26:44;-1.50;99.90
48019;DHT22;33786;48.690;9.562;2023-04-06T00:29:11;-1.50;99.90
48019;DHT22;33786;48.690;9.562;2023-04-06T00:31:38;-1.60;99.90
48019;DHT22;33786;48.690;9.562;2023-04-06T00:34:05;-1.60;99.90
48019;DHT22;33786;48.690;9.562;2023-04-06T00:36:32;-1.60;99.90
48019;DHT22;33786;48.690;9.562;2023-04-06T00:38:58;-1.70;99.90
48019;DHT22;33786;48.690;9.562;2023-04-06T00:41:25;-1.80;99.90
48019;DHT22;33786;48.690;9.562;2023-04-06T00:43:53;-1.80;99.90
48019;DHT22;33786;48.690;9.562;2023-04-06T00:46:19;-1.80;99.90
48019;DHT22;33786;48.690;9.562;2023-04-06T00:48:46;-1.80;99.90
48019;DHT22;33786;48.690;9.562;2023-04-06T00:51:13;-1.80;99.90
48019;DHT22;33786;48.690;9.562;2023-04-06T00:53:39;-1.80;99.90
48019;DHT22;33786;48.690;9.562;2023-04-06T00:56:06;-1.80;99.90
48019;DHT22;33786;48.690;9.562;2023-04-06T00:58:36;-1.90;99.90
48019;DHT22;33786;48.690;9.562;2023-04-06T01:01:07;-2.00;99.90
48019;DHT22;33786;48.690;9.562;2023-04-06T01:03:33;-2.00;99.90
48019;DHT22;33786;48.690;9.562;2023-04-06T01:06:00;-2.00;99.90
48019;DHT22;33786;48.690;9.562;2023-04-06T01:08:27;-2.00;99.90
48019;DHT22;33786;48.690;9.562;2023-04-06T01:10:54;-2.00;99.90
48019;DHT22;33786;48.690;9.562;2023-04-06T01:13:20;-2.00;99.90
48019;DHT22;33786;48.690;9.562;2023-04-06T01:15:47;-2.00;99.90
48019;DHT22;33786;48.690;9.562;2023-04-06T01:18:14;-2.00;99.90
48019;DHT22;33786;48.690;9.562;2023-04-06T01:20:41;-2.00;99.90
48019;DHT22;33786;48.690;9.562;2023-04-06T01:23:08;-2.10;99.90
48019;DHT22;33786;48.690;9.562;2023-04-06T01:25:35;-2.10;99.90
48019;DHT22;33786;48.690;9.562;2023-04-06T01:28:01;-2.10;99.90
48019;DHT22;33786;48.690;9.562;2023-04-06T01:30:28;-2.20;99.90
48019;DHT22;33786;48.690;9.562;2023-04-06T01:32:55;-2.20;99.90
48019;DHT22;33786;48.690;9.562;2023-04-06T01:35:22;-2.20;99.90
48019;DHT22;33786;48.690;9.562;2023-04-06T01:37:49;-2.20;99.90
48019;DHT22;33786;48.690;9.562;2023-04-06T01:40:15;-2.30;99.90
48019;DHT22;33786;48.690;9.562;2023-04-06T01:42:42;-2.30;99.90
48019;DHT22;33786;48.690;9.562;2023-04-06T01:45:09;-2.30;99.90
48019;DHT22;33786;48.690;9.562;2023-04-06T01:47:36;-2.40;99.90
48019;DHT22;33786;48.690;9.562;2023-04-06T01:50:02;-2.40;99.90
48019;DHT22;33786;48.690;9.562;2023-04-06T01:52:32;-2.40;99.90
48019;DHT22;33786;48.690;9.562;2023-04-06T01:54:59;-2.40;99.90
48019;DHT22;33786;48.690;9.562;2023-04-06T01:57:26;-2.40;99.90
48019;DHT22;33786;48.690;9.562;2023-04-06T01:59:54;-2.40;99.90
48019;DHT22;33786;48.690;9.562;2023-04-06T02:02:21;-2.40;99.90
48019;DHT22;33786;48.690;9.562;2023-04-06T02:04:47;-2.40;99.90
48019;DHT22;33786;48.690;9.562;2023-04-06T02:07:14;-2.50;99.90
48019;DHT22;33786;48.690;9.562;2023-04-06T02:09:41;-2.50;99.90
48019;DHT22;33786;48.690;9.562;2023-04-06T02:12:08;-2.50;99.90
48019;DHT22;33786;48.690;9.562;2023-04-06T02:14:34;-2.60;99.90
48019;DHT22;33786;48.690;9.562;2023-04-06T02:17:01;-2.60;99.90
48019;DHT22;33786;48.690;9.562;2023-04-06T02:19:28;-2.60;99.90
48019;DHT22;33786;48.690;9.562;2023-04-06T02:21:54;-2.60;99.90
48019;DHT22;33786;48.690;9.562;2023-04-06T02:24:22;-2.50;99.90
48019;DHT22;33786;48.690;9.562;2023-04-06T02:26:48;-2.60;99.90
48019;DHT22;33786;48.690;9.562;2023-04-06T02:29:15;-2.60;99.90
48019;DHT22;33786;48.690;9.562;2023-04-06T02:31:42;-2.70;99.90
48019;DHT22;33786;48.690;9.562;2023-04-06T02:34:09;-2.60;99.90
48019;DHT22;33786;48.690;9.562;2023-04-06T02:36:38;-2.60;99.90
48019;DHT22;33786;48.690;9.562;2023-04-06T02:39:05;-2.70;99.90
48019;DHT22;33786;48.690;9.562;2023-04-06T02:41:32;-2.70;99.90
48019;DHT22;33786;48.690;9.562;2023-04-06T02:43:58;-2.70;99.90
48019;DHT22;33786;48.690;9.562;2023-04-06T02:46:25;-2.80;99.90
48019;DHT22;33786;48.690;9.562;2023-04-06T02:48:52;-2.80;99.90
48019;DHT22;33786;48.690;9.562;2023-04-06T02:51:19;-2.80;99.90
48019;DHT22;33786;48.690;9.562;2023-04-06T02:53:46;-2.90;99.90
48019;DHT22;33786;48.690;9.562;2023-04-06T02:56:12;-2.80;99.90
48019;DHT22;33786;48.690;9.562;2023-04-06T02:58:39;-2.90;99.90
48019;DHT22;33786;48.690;9.562;2023-04-06T03:01:06;-2.80;99.90
48019;DHT22;33786;48.690;9.562;2023-04-06T03:03:33;-2.90;99.90
48019;DHT22;33786;48.690;9.562;2023-04-06T03:05:59;-2.90;99.90
48019;DHT22;33786;48.690;9.562;2023-04-06T03:08:26;-2.90;99.90
48019;DHT22;33786;48.690;9.562;2023-04-06T03:10:53;-3.00;99.90
48019;DHT22;33786;48.690;9.562;2023-04-06T03:13:20;-3.00;99.90
48019;DHT22;33786;48.690;9.562;2023-04-06T03:15:47;-3.00;99.90
48019;DHT22;33786;48.690;9.562;2023-04-06T03:18:13;-3.00;99.90
48019;DHT22;33786;48.690;9.562;2023-04-06T03:20:40;-3.00;99.90
48019;DHT22;33786;48.690;9.562;2023-04-06T03:23:07;-3.10;99.90
48019;DHT22;33786;48.690;9.562;2023-04-06T03:25:33;-3.00;99.90
48019;DHT22;33786;48.690;9.562;2023-04-06T03:28:00;-3.10;99.90
48019;DHT22;33786;48.690;9.562;2023-04-06T03:30:27;-3.10;99.90
48019;DHT22;33786;48.690;9.562;2023-04-06T03:32:53;-3.20;99.90
48019;DHT22;33786;48.690;9.562;2023-04-06T03:35:20;-3.10;99.90
48019;DHT22;33786;48.690;9.562;2023-04-06T03:37:47;-3.20;99.90
48019;DHT22;33786;48.690;9.562;2023-04-06T03:40:14;-3.20;99.90
48019;DHT22;33786;48.690;9.562;2023-04-06T03:42:41;-3.10;99.90
48019;DHT22;33786;48.690;9.562;2023-04-06T03:45:07;-3.20;99.90
48019;DHT22;33786;48.690;9.562;2023-04-06T03:47:34;-3.20;99.90
48019;DHT22;33786;48.690;9.562;2023-04-06T03:50:01;-3.20;99.90
48019;DHT22;33786;48.690;9.562;2023-04-06T03:52:29;-3.20;99.90
48019;DHT22;33786;48.690;9.562;2023-04-06T03:54:55;-3.30;99.90
48019;DHT22;33786;48.690;9.562;2023-04-06T03:57:22;-3.20;99.90
48019;DHT22;33786;48.690;9.562;2023-04-06T03:59:49;-3.30;99.90
48019;DHT22;33786;48.690;9.562;2023-04-06T04:02:15;-3.30;99.90
48019;DHT22;33786;48.690;9.562;2023-04-06T04:04:42;-3.40;99.90
48019;DHT22;33786;48.690;9.562;2023-04-06T04:07:09;-3.30;99.90
48019;DHT22;33786;48.690;9.562;2023-04-06T04:09:36;-3.30;99.90
48019;DHT22;33786;48.690;9.562;2023-04-06T04:12:03;-3.40;99.90
48019;DHT22;33786;48.690;9.562;2023-04-06T04:14:30;-3.40;99.90
48019;DHT22;33786;48.690;9.562;2023-04-06T04:16:56;-3.40;99.90
48019;DHT22;33786;48.690;9.562;2023-04-06T04:19:23;-3.40;99.90
48019;DHT22;33786;48.690;9.562;2023-04-06T04:21:50;-3.40;99.90
48019;DHT22;33786;48.690;9.562;2023-04-06T04:24:16;-3.40;99.90
48019;DHT22;33786;48.690;9.562;2023-04-06T04:26:43;-3.40;99.90
48019;DHT22;33786;48.690;9.562;2023-04-06T04:29:10;-3.40;99.90
48019;DHT22;33786;48.690;9.562;2023-04-06T04:31:37;-3.40;99.90
48019;DHT22;33786;48.690;9.562;2023-04-06T04:34:04;-3.40;99.90
48019;DHT22;33786;48.690;9.562;2023-04-06T04:36:33;-3.40;99.90
48019;DHT22;33786;48.690;9.562;2023-04-06T04:38:59;-3.50;99.90
48019;DHT22;33786;48.690;9.562;2023-04-06T04:41:27;-3.50;99.90
48019;DHT22;33786;48.690;9.562;2023-04-06T04:43:54;-3.50;99.90
48019;DHT22;33786;48.690;9.562;2023-04-06T04:46:21;-3.40;99.90
48019;DHT22;33786;48.690;9.562;2023-04-06T04:48:48;-3.40;99.90
48019;DHT22;33786;48.690;9.562;2023-04-06T04:51:15;-3.30;99.90
48019;DHT22;33786;48.690;9.562;2023-04-06T04:53:41;-3.30;99.90
48019;DHT22;33786;48.690;9.562;2023-04-06T04:56:08;-3.30;99.90
48019;DHT22;33786;48.690;9.562;2023-04-06T04:58:35;-3.30;99.90
48019;DHT22;33786;48.690;9.562;2023-04-06T05:01:02;-3.20;99.90
48019;DHT22;33786;48.690;9.562;2023-04-06T05:03:29;-3.20;99.90
48019;DHT22;33786;48.690;9.562;2023-04-06T05:05:56;-3.10;99.90
48019;DHT22;33786;48.690;9.562;2023-04-06T05:08:22;-3.00;99.90
48019;DHT22;33786;48.690;9.562;2023-04-06T05:10:49;-3.00;99.90
48019;DHT22;33786;48.690;9.562;2023-04-06T05:13:16;-2.90;99.90
48019;DHT22;33786;48.690;9.562;2023-04-06T05:15:43;-2.80;99.90
48019;DHT22;33786;48.690;9.562;2023-04-06T05:18:10;-2.70;99.90
48019;DHT22;33786;48.690;9.562;2023-04-06T05:20:38;-2.60;99.90
48019;DHT22;33786;48.690;9.562;2023-04-06T05:23:05;-2.50;99.90
48019;DHT22;33786;48.690;9.562;2023-04-06T05:25:32;-2.40;99.90
48019;DHT22;33786;48.690;9.562;2023-04-06T05:27:59;-2.30;99.90
48019;DHT22;33786;48.690;9.562;2023-04-06T05:30:26;-2.00;99.90
48019;DHT22;33786;48.690;9.562;2023-04-06T05:32:53;-1.50;99.90
48019;DHT22;33786;48.690;9.562;2023-04-06T05:35:19;-0.50;99.90
48019;DHT22;33786;48.690;9.562;2023-04-06T05:37:46;1.50;99.90
48019;DHT22;33786;48.690;9.562;2023-04-06T05:40:13;3.60;98.10
48019;DHT22;33786;48.690;9.562;2023-04-06T05:42:40;5.20;93.90
48019;DHT22;33786;48.690;9.562;2023-04-06T05:45:10;6.80;90.40
48019;DHT22;33786;48.690;9.562;2023-04-06T05:47:37;7.80;85.80
48019;DHT22;33786;48.690;9.562;2023-04-06T05:50:04;8.60;81.60
48019;DHT22;33786;48.690;9.562;2023-04-06T05:52:31;9.60;78.40
48019;DHT22;33786;48.690;9.562;2023-04-06T05:54:58;9.90;75.70
48019;DHT22;33786;48.690;9.562;2023-04-06T05:57:24;10.50;73.40
48019;DHT22;33786;48.690;9.562;2023-04-06T05:59:51;11.10;72.40
48019;DHT22;33786;48.690;9.562;2023-04-06T06:02:18;11.80;70.30
48019;DHT22;33786;48.690;9.562;2023-04-06T06:04:45;12.30;68.40
48019;DHT22;33786;48.690;9.562;2023-04-06T08:06:58;19.90;48.50
48019;DHT22;33786;48.690;9.562;2023-04-06T08:09:25;20.50;47.90
48019;DHT22;33786;48.690;9.562;2023-04-06T08:11:52;21.40;47.10
48019;DHT22;33786;48.690;9.562;2023-04-06T08:14:19;21.40;46.10
48019;DHT22;33786;48.690;9.562;2023-04-06T08:16:46;21.60;46.70
48019;DHT22;33786;48.690;9.562;2023-04-06T08:19:13;22.90;44.70
48019;DHT22;33786;48.690;9.562;2023-04-06T08:21:43;23.40;44.60
48019;DHT22;33786;48.690;9.562;2023-04-06T08:24:10;22.70;44.50
48019;DHT22;33786;48.690;9.562;2023-04-06T08:26:37;23.00;43.60
48019;DHT22;33786;48.690;9.562;2023-04-06T08:29:03;22.90;44.50
48019;DHT22;33786;48.690;9.562;2023-04-06T08:31:30;23.80;42.70
48019;DHT22;33786;48.690;9.562;2023-04-06T08:33:57;23.60;44.20
48019;DHT22;33786;48.690;9.562;2023-04-06T08:36:24;23.50;43.00
48019;DHT22;33786;48.690;9.562;2023-04-06T08:38:51;23.70;42.60
48019;DHT22;33786;48.690;9.562;2023-04-06T08:41:18;23.70;43.90
48019;DHT22;33786;48.690;9.562;2023-04-06T08:46:11;22.50;43.10
48019;DHT22;33786;48.690;9.562;2023-04-06T08:48:38;21.70;44.90
48019;DHT22;33786;48.690;9.562;2023-04-06T08:51:06;22.30;44.70
48019;DHT22;33786;48.690;9.562;2023-04-06T08:53:33;22.90;43.00
48019;DHT22;33786;48.690;9.562;2023-04-06T08:56:00;22.70;42.70
48019;DHT22;33786;48.690;9.562;2023-04-06T08:58:28;21.00;44.00
48019;DHT22;33786;48.690;9.562;2023-04-06T09:01:06;20.70;45.50
48019;DHT22;33786;48.690;9.562;2023-04-06T09:03:39;21.10;45.80
48019;DHT22;33786;48.690;9.562;2023-04-06T09:06:07;21.20;44.70
48019;DHT22;33786;48.690;9.562;2023-04-06T09:08:35;20.70;44.70
48019;DHT22;33786;48.690;9.562;2023-04-06T09:11:02;19.90;47.30
48019;DHT22;33786;48.690;9.562;2023-04-06T09:13:29;20.30;46.10
48019;DHT22;33786;48.690;9.562;2023-04-06T09:16:02;21.30;45.30
48019;DHT22;33786;48.690;9.562;2023-04-06T09:18:32;21.90;44.70
48019;DHT22;33786;48.690;9.562;2023-04-06T09:21:03;22.00;42.90
48019;DHT22;33786;48.690;9.562;2023-04-06T09:23:31;23.20;43.00
48019;DHT22;33786;48.690;9.562;2023-04-06T09:28:53;22.60;43.30
48019;DHT22;33786;48.690;9.562;2023-04-06T09:31:24;23.00;43.00
48019;DHT22;33786;48.690;9.562;2023-04-06T09:33:51;23.10;42.20
48019;DHT22;33786;48.690;9.562;2023-04-06T09:36:31;22.60;43.10
48019;DHT22;33786;48.690;9.562;2023-04-06T09:38:59;23.20;41.80
48019;DHT22;33786;48.690;9.562;2023-04-06T09:41:27;22.50;42.80
48019;DHT22;33786;48.690;9.562;2023-04-06T09:44:09;22.10;44.10
48019;DHT22;33786;48.690;9.562;2023-04-06T09:46:44;21.90;42.50
48019;DHT22;33786;48.690;9.562;2023-04-06T09:49:30;22.90;42.80
48019;DHT22;33786;48.690;9.562;2023-04-06T09:51:58;21.30;43.90
48019;DHT22;33786;48.690;9.562;2023-04-06T09:54:27;21.50;42.80
48019;DHT22;33786;48.690;9.562;2023-04-06T10:04:55;21.90;40.00
48019;DHT22;33786;48.690;9.562;2023-04-06T10:07:23;21.70;43.00
48019;DHT22;33786;48.690;9.562;2023-04-06T10:09:49;22.70;40.10
48019;DHT22;33786;48.690;9.562;2023-04-06T10:12:17;22.80;38.50
48019;DHT22;33786;48.690;9.562;2023-04-06T10:14:44;21.70;39.60
48019;DHT22;33786;48.690;9.562;2023-04-06T10:17:11;22.20;39.40
48019;DHT22;33786;48.690;9.562;2023-04-06T10:20:06;22.50;39.80
48019;DHT22;33786;48.690;9.562;2023-04-06T10:25:05;21.90;39.60
48019;DHT22;33786;48.690;9.562;2023-04-06T10:27:31;22.30;39.40
48019;DHT22;33786;48.690;9.562;2023-04-06T10:30:02;21.40;40.20
48019;DHT22;33786;48.690;9.562;2023-04-06T10:32:36;21.00;40.30
48019;DHT22;33786;48.690;9.562;2023-04-06T10:35:07;19.90;42.00
48019;DHT22;33786;48.690;9.562;2023-04-06T10:37:53;19.50;42.60
48019;DHT22;33786;48.690;9.562;2023-04-06T10:40:23;19.90;41.50
48019;DHT22;33786;48.690;9.562;2023-04-06T10:42:52;19.10;43.90
48019;DHT22;33786;48.690;9.562;2023-04-06T10:45:23;19.40;41.50
48019;DHT22;33786;48.690;9.562;2023-04-06T10:47:54;19.20;42.00
48019;DHT22;33786;48.690;9.562;2023-04-06T10:50:21;19.20;44.00
48019;DHT22;33786;48.690;9.562;2023-04-06T10:53:10;18.70;43.00
48019;DHT22;33786;48.690;9.562;2023-04-06T10:55:35;17.90;44.50
48019;DHT22;33786;48.690;9.562;2023-04-06T10:58:08;17.40;45.40
48019;DHT22;33786;48.690;9.562;2023-04-06T11:00:35;17.40;46.40
48019;DHT22;33786;48.690;9.562;2023-04-06T11:03:16;17.40;44.00
48019;DHT22;33786;48.690;9.562;2023-04-06T11:05:46;17.00;45.70
48019;DHT22;33786;48.690;9.562;2023-04-06T11:08:26;16.90;45.60
48019;DHT22;33786;48.690;9.562;2023-04-06T11:13:40;17.00;45.40
48019;DHT22;33786;48.690;9.562;2023-04-06T11:16:11;17.10;45.00
48019;DHT22;33786;48.690;9.562;2023-04-06T11:18:38;16.90;45.20
48019;DHT22;33786;48.690;9.562;2023-04-06T11:21:12;15.90;46.60
48019;DHT22;33786;48.690;9.562;2023-04-06T11:23:39;16.00;47.30
48019;DHT22;33786;48.690;9.562;2023-04-06T11:26:09;15.80;47.10
48019;DHT22;33786;48.690;9.562;2023-04-06T11:28:36;16.00;47.30
48019;DHT22;33786;48.690;9.562;2023-04-06T11:31:03;15.30;47.60
48019;DHT22;33786;48.690;9.562;2023-04-06T11:33:34;15.00;46.80
48019;DHT22;33786;48.690;9.562;2023-04-06T11:36:01;14.70;47.60
48019;DHT22;33786;48.690;9.562;2023-04-06T11:38:28;14.60;50.30
48019;DHT22;33786;48.690;9.562;2023-04-06T11:40:54;14.70;48.30
48019;DHT22;33786;48.690;9.562;2023-04-06T11:43:30;15.00;48.10
48019;DHT22;33786;48.690;9.562;2023-04-06T11:46:01;15.40;48.00
48019;DHT22;33786;48.690;9.562;2023-04-06T11:48:29;15.20;49.50
48019;DHT22;33786;48.690;9.562;2023-04-06T11:50:59;15.40;50.40
48019;DHT22;33786;48.690;9.562;2023-04-06T11:53:28;15.60;48.70
48019;DHT22;33786;48.690;9.562;2023-04-06T11:55:56;15.20;49.10
48019;DHT22;33786;48.690;9.562;2023-04-06T11:58:22;15.30;48.20
48019;DHT22;33786;48.690;9.562;2023-04-06T12:00:49;15.00;49.20
48019;DHT22;33786;48.690;9.562;2023-04-06T12:03:16;15.30;49.50
48019;DHT22;33786;48.690;9.562;2023-04-06T12:05:43;15.60;47.30
48019;DHT22;33786;48.690;9.562;2023-04-06T12:08:10;15.50;47.00
48019;DHT22;33786;48.690;9.562;2023-04-06T12:10:37;15.40;50.30
48019;DHT22;33786;48.690;9.562;2023-04-06T12:13:03;15.40;48.20
48019;DHT22;33786;48.690;9.562;2023-04-06T12:15:31;15.70;47.30
48019;DHT22;33786;48.690;9.562;2023-04-06T12:17:57;15.70;48.20
48019;DHT22;33786;48.690;9.562;2023-04-06T12:20:24;15.60;47.80
48019;DHT22;33786;48.690;9.562;2023-04-06T12:22:53;15.50;49.10
48019;DHT22;33786;48.690;9.562;2023-04-06T12:25:20;15.60;46.90
48019;DHT22;33786;48.690;9.562;2023-04-06T12:27:47;15.60;50.30
48019;DHT22;33786;48.690;9.562;2023-04-06T12:30:14;15.60;50.70
48019;DHT22;33786;48.690;9.562;2023-04-06T12:32:40;15.70;46.80
48019;DHT22;33786;48.690;9.562;2023-04-06T12:35:08;15.70;48.60
48019;DHT22;33786;48.690;9.562;2023-04-06T12:37:35;15.70;48.40
48019;DHT22;33786;48.690;9.562;2023-04-06T12:40:03;15.90;47.80
48019;DHT22;33786;48.690;9.562;2023-04-06T12:42:30;15.80;46.90
48019;DHT22;33786;48.690;9.562;2023-04-06T12:44:57;15.70;47.60
48019;DHT22;33786;48.690;9.562;2023-04-06T12:47:25;15.50;47.10
48019;DHT22;33786;48.690;9.562;2023-04-06T12:49:53;15.20;49.80
48019;DHT22;33786;48.690;9.562;2023-04-06T12:52:20;14.90;46.70
48019;DHT22;33786;48.690;9.562;2023-04-06T12:54:47;15.20;48.90
48019;DHT22;33786;48.690;9.562;2023-04-06T12:57:16;15.40;47.30
48019;DHT22;33786;48.690;9.562;2023-04-06T12:59:43;15.60;47.20
48019;DHT22;33786;48.690;9.562;2023-04-06T13:02:11;15.40;48.70
48019;DHT22;33786;48.690;9.562;2023-04-06T13:04:38;15.30;49.00
48019;DHT22;33786;48.690;9.562;2023-04-06T13:07:05;15.40;47.90
48019;DHT22;33786;48.690;9.562;2023-04-06T13:09:31;16.00;49.40
48019;DHT22;33786;48.690;9.562;2023-04-06T13:11:58;16.30;45.90
48019;DHT22;33786;48.690;9.562;2023-04-06T13:14:25;16.40;47.00
48019;DHT22;33786;48.690;9.562;2023-04-06T13:16:52;16.10;47.60
48019;DHT22;33786;48.690;9.562;2023-04-06T13:19:18;15.80;47.30
48019;DHT22;33786;48.690;9.562;2023-04-06T13:21:45;15.30;46.80
48019;DHT22;33786;48.690;9.562;2023-04-06T13:24:12;15.00;46.10
48019;DHT22;33786;48.690;9.562;2023-04-06T13:26:41;14.90;47.60
48019;DHT22;33786;48.690;9.562;2023-04-06T13:29:08;14.70;47.80
48019;DHT22;33786;48.690;9.562;2023-04-06T13:31:35;14.90;47.60
48019;DHT22;33786;48.690;9.562;2023-04-06T13:34:02;15.20;48.80
48019;DHT22;33786;48.690;9.562;2023-04-06T13:36:28;15.10;48.50
48019;DHT22;33786;48.690;9.562;2023-04-06T13:38:56;15.30;49.70
48019;DHT22;33786;48.690;9.562;2023-04-06T13:41:23;15.40;49.50
48019;DHT22;33786;48.690;9.562;2023-04-06T13:43:51;15.50;45.90
48019;DHT22;33786;48.690;9.562;2023-04-06T13:46:18;15.60;46.10
48019;DHT22;33786;48.690;9.562;2023-04-06T13:48:45;15.90;46.40
48019;DHT22;33786;48.690;9.562;2023-04-06T13:51:13;15.90;47.40
48019;DHT22;33786;48.690;9.562;2023-04-06T13:53:40;15.90;48.60
48019;DHT22;33786;48.690;9.562;2023-04-06T13:56:07;15.50;48.00
48019;DHT22;33786;48.690;9.562;2023-04-06T13:58:34;15.80;47.80
48019;DHT22;33786;48.690;9.562;2023-04-06T14:01:03;16.10;46.20
48019;DHT22;33786;48.690;9.562;2023-04-06T14:03:30;16.30;47.50
48019;DHT22;33786;48.690;9.562;2023-04-06T14:05:58;16.30;45.60
48019;DHT22;33786;48.690;9.562;2023-04-06T14:08:41;16.30;45.20
48019;DHT22;33786;48.690;9.562;2023-04-06T14:11:10;16.30;45.50
48019;DHT22;33786;48.690;9.562;2023-04-06T14:13:38;16.20;45.20
48019;DHT22;33786;48.690;9.562;2023-04-06T14:16:05;16.00;45.90
48019;DHT22;33786;48.690;9.562;2023-04-06T14:18:33;15.70;47.40
48019;DHT22;33786;48.690;9.562;2023-04-06T14:21:00;15.30;44.70
48019;DHT22;33786;48.690;9.562;2023-04-06T14:23:27;15.10;46.50
48019;DHT22;33786;48.690;9.562;2023-04-06T14:26:04;14.80;47.00
48019;DHT22;33786;48.690;9.562;2023-04-06T14:28:34;14.70;47.00
48019;DHT22;33786;48.690;9.562;2023-04-06T14:31:01;14.50;47.40
48019;DHT22;33786;48.690;9.562;2023-04-06T14:33:29;14.40;47.20
48019;DHT22;33786;48.690;9.562;2023-04-06T14:35:56;14.60;48.20
48019;DHT22;33786;48.690;9.562;2023-04-06T14:38:26;14.90;47.70
48019;DHT22;33786;48.690;9.562;2023-04-06T14:40:53;14.70;46.80
48019;DHT22;33786;48.690;9.562;2023-04-06T14:43:20;14.80;45.20
48019;DHT22;33786;48.690;9.562;2023-04-06T14:45:47;14.80;44.30
48019;DHT22;33786;48.690;9.562;2023-04-06T14:48:14;14.60;44.10
48019;DHT22;33786;48.690;9.562;2023-04-06T14:50:51;14.50;44.60
48019;DHT22;33786;48.690;9.562;2023-04-06T14:53:18;14.50;42.90
48019;DHT22;33786;48.690;9.562;2023-04-06T14:55:44;14.30;43.30
48019;DHT22;33786;48.690;9.562;2023-04-06T14:58:11;14.30;44.60
48019;DHT22;33786;48.690;9.562;2023-04-06T15:00:38;14.50;42.60
48019;DHT22;33786;48.690;9.562;2023-04-06T15:03:04;14.50;44.40
48019;DHT22;33786;48.690;9.562;2023-04-06T15:05:33;14.60;42.80
48019;DHT22;33786;48.690;9.562;2023-04-06T15:08:02;14.80;45.00
48019;DHT22;33786;48.690;9.562;2023-04-06T15:10:32;14.80;45.40
48019;DHT22;33786;48.690;9.562;2023-04-06T15:12:59;14.90;44.00
48019;DHT22;33786;48.690;9.562;2023-04-06T15:15:26;15.20;44.60
48019;DHT22;33786;48.690;9.562;2023-04-06T15:17:53;15.30;45.60
48019;DHT22;33786;48.690;9.562;2023-04-06T15:20:20;15.30;46.60
48019;DHT22;33786;48.690;9.562;2023-04-06T15:22:47;15.00;44.90
48019;DHT22;33786;48.690;9.562;2023-04-06T15:25:13;15.40;44.60
48019;DHT22;33786;48.690;9.562;2023-04-06T15:27:40;15.40;44.40
48019;DHT22;33786;48.690;9.562;2023-04-06T15:30:07;15.10;43.50
48019;DHT22;33786;48.690;9.562;2023-04-06T15:32:33;14.80;42.90
48019;DHT22;33786;48.690;9.562;2023-04-06T15:35:07;14.60;42.90
48019;DHT22;33786;48.690;9.562;2023-04-06T15:37:34;14.60;43.40
48019;DHT22;33786;48.690;9.562;2023-04-06T15:40:01;14.80;43.10
48019;DHT22;33786;48.690;9.562;2023-04-06T15:42:28;14.90;42.80
48019;DHT22;33786;48.690;9.562;2023-04-06T15:44:54;14.80;43.40
48019;DHT22;33786;48.690;9.562;2023-04-06T15:47:21;14.80;44.60
48019;DHT22;33786;48.690;9.562;2023-04-06T15:49:47;14.80;44.10
48019;DHT22;33786;48.690;9.562;2023-04-06T15:52:14;14.80;44.90
48019;DHT22;33786;48.690;9.562;2023-04-06T15:54:41;14.80;44.30
48019;DHT22;33786;48.690;9.562;2023-04-06T15:57:08;14.60;43.10
48019;DHT22;33786;48.690;9.562;2023-04-06T15:59:34;14.60;42.70
48019;DHT22;33786;48.690;9.562;2023-04-06T16:02:01;14.70;43.50
48019;DHT22;33786;48.690;9.562;2023-04-06T16:04:28;14.80;44.80
48019;DHT22;33786;48.690;9.562;2023-04-06T16:06:55;14.60;44.70
48019;DHT22;33786;48.690;9.562;2023-04-06T16:09:22;14.40;43.70
48019;DHT22;33786;48.690;9.562;2023-04-06T16:11:48;14.30;43.40
48019;DHT22;33786;48.690;9.562;2023-04-06T16:14:15;14.30;44.50
48019;DHT22;33786;48.690;9.562;2023-04-06T16:16:41;14.20;44.60
48019;DHT22;33786;48.690;9.562;2023-04-06T16:19:09;14.20;45.00
48019;DHT22;33786;48.690;9.562;2023-04-06T16:21:35;14.20;46.30
48019;DHT22;33786;48.690;9.562;2023-04-06T16:24:02;14.10;46.60
48019;DHT22;33786;48.690;9.562;2023-04-06T16:26:30;13.90;46.40
48019;DHT22;33786;48.690;9.562;2023-04-06T16:28:57;13.90;47.10
48019;DHT22;33786;48.690;9.562;2023-04-06T16:31:24;13.90;48.30
48019;DHT22;33786;48.690;9.562;2023-04-06T16:33:52;13.80;46.80
48019;DHT22;33786;48.690;9.562;2023-04-06T16:36:22;13.70;46.80
48019;DHT22;33786;48.690;9.562;2023-04-06T16:38:50;13.70;47.50
48019;DHT22;33786;48.690;9.562;2023-04-06T16:41:17;13.80;46.60
48019;DHT22;33786;48.690;9.562;2023-04-06T16:43:44;13.80;47.70
48019;DHT22;33786;48.690;9.562;2023-04-06T16:46:12;13.80;47.80
48019;DHT22;33786;48.690;9.562;2023-04-06T16:48:39;13.70;47.70
48019;DHT22;33786;48.690;9.562;2023-04-06T16:51:05;13.60;48.10
48019;DHT22;33786;48.690;9.562;2023-04-06T16:53:33;13.60;49.90
48019;DHT22;33786;48.690;9.562;2023-04-06T16:56:03;13.50;48.00
48019;DHT22;33786;48.690;9.562;2023-04-06T16:58:31;13.50;47.10
48019;DHT22;33786;48.690;9.562;2023-04-06T17:00:58;13.40;48.40
48019;DHT22;33786;48.690;9.562;2023-04-06T17:03:28;13.30;47.80
48019;DHT22;33786;48.690;9.562;2023-04-06T17:05:56;13.30;47.70
48019;DHT22;33786;48.690;9.562;2023-04-06T17:08:23;13.20;47.60
48019;DHT22;33786;48.690;9.562;2023-04-06T17:10:49;13.20;48.00
48019;DHT22;33786;48.690;9.562;2023-04-06T17:13:28;13.10;48.30
48019;DHT22;33786;48.690;9.562;2023-04-06T17:15:54;13.00;49.50
48019;DHT22;33786;48.690;9.562;2023-04-06T17:18:21;12.90;49.40
48019;DHT22;33786;48.690;9.562;2023-04-06T17:20:48;12.80;50.20
48019;DHT22;33786;48.690;9.562;2023-04-06T17:23:14;12.70;52.50
48019;DHT22;33786;48.690;9.562;2023-04-06T17:25:42;12.60;53.20
48019;DHT22;33786;48.690;9.562;2023-04-06T17:28:08;12.40;53.00
48019;DHT22;33786;48.690;9.562;2023-04-06T17:30:35;12.30;56.30
48019;DHT22;33786;48.690;9.562;2023-04-06T17:33:02;12.10;56.80
48019;DHT22;33786;48.690;9.562;2023-04-06T17:35:29;11.90;56.00
48019;DHT22;33786;48.690;9.562;2023-04-06T17:37:56;11.80;57.90
48019;DHT22;33786;48.690;9.562;2023-04-06T17:40:22;11.60;56.20
48019;DHT22;33786;48.690;9.562;2023-04-06T17:42:49;11.50;54.80
48019;DHT22;33786;48.690;9.562;2023-04-06T17:45:16;11.50;53.50
48019;DHT22;33786;48.690;9.562;2023-04-06T17:47:43;11.40;54.90
48019;DHT22;33786;48.690;9.562;2023-04-06T17:50:10;11.40;55.10
48019;DHT22;33786;48.690;9.562;2023-04-06T17:52:37;11.30;57.40